sensor_id;sensor_type;location;lat;lon;timestamp;P1;durP1;ratioP1;P2;durP2;ratioP2
691;SDS011;328;50.086;8.576;2022-09-04T00:00:26;3.57;;;1.27;;
691;SDS011;328;50.086;8.576;2022-09-04T00:03:37;3.93;;;1.13;;
691;SDS011;328;50.086;8.576;2022-09-04T00:06:27;2.90;;;1.00;;
691;SDS011;328;50.086;8.576;2022-09-04T00:09:07;1.07;;;0.80;;
691;SDS011;328;50.086;8.576;2022-09-04T00:11:45;1.70;;;1.03;;
691;SDS011;328;50.086;8.576;2022-09-04T00:14:32;2.10;;;1.00;;
691;SDS011;328;50.086;8.576;2022-09-04T00:17:06;1.50;;;1.00;;
691;SDS011;328;50.086;8.576;2022-09-04T00:19:42;1.97;;;0.90;;
691;SDS011;328;50.086;8.576;2022-09-04T00:22:19;1.00;;;0.70;;
691;SDS011;328;50.086;8.576;2022-09-04T00:24:58;1.40;;;0.80;;
691;SDS011;328;50.086;8.576;2022-09-04T00:27:35;1.70;;;0.70;;
691;SDS011;328;50.086;8.576;2022-09-04T00:30:12;1.10;;;0.70;;
691;SDS011;328;50.086;8.576;2022-09-04T00:32:53;1.50;;;1.00;;
691;SDS011;328;50.086;8.576;2022-09-04T00:35:28;1.83;;;1.07;;
691;SDS011;328;50.086;8.576;2022-09-04T00:38:02;2.83;;;0.83;;
691;SDS011;328;50.086;8.576;2022-09-04T00:40:36;1.17;;;0.97;;
691;SDS011;328;50.086;8.576;2022-09-04T00:43:23;1.83;;;1.10;;
691;SDS011;328;50.086;8.576;2022-09-04T00:46:04;1.00;;;0.80;;
691;SDS011;328;50.086;8.576;2022-09-04T00:52:03;2.90;;;0.93;;
691;SDS011;328;50.086;8.576;2022-09-04T00:54:46;1.97;;;1.07;;
691;SDS011;328;50.086;8.576;2022-09-04T00:57:58;1.67;;;1.53;;
691;SDS011;328;50.086;8.576;2022-09-04T01:00:42;1.77;;;1.00;;
691;SDS011;328;50.086;8.576;2022-09-04T01:06:27;2.83;;;1.40;;
691;SDS011;328;50.086;8.576;2022-09-04T01:11:56;2.33;;;1.43;;
691;SDS011;328;50.086;8.576;2022-09-04T01:14:44;1.90;;;1.17;;
691;SDS011;328;50.086;8.576;2022-09-04T01:17:23;1.40;;;1.00;;
691;SDS011;328;50.086;8.576;2022-09-04T01:19:57;1.27;;;0.93;;
691;SDS011;328;50.086;8.576;2022-09-04T01:22:47;1.43;;;1.20;;
691;SDS011;328;50.086;8.576;2022-09-04T01:25:29;1.60;;;1.20;;
691;SDS011;328;50.086;8.576;2022-09-04T01:28:08;2.80;;;1.40;;
691;SDS011;328;50.086;8.576;2022-09-04T01:30:42;1.90;;;1.17;;
691;SDS011;328;50.086;8.576;2022-09-04T01:33:14;2.13;;;1.33;;
691;SDS011;328;50.086;8.576;2022-09-04T01:35:48;5.33;;;1.37;;
691;SDS011;328;50.086;8.576;2022-09-04T01:38:21;1.83;;;1.20;;
691;SDS011;328;50.086;8.576;2022-09-04T01:40:57;1.30;;;1.10;;
691;SDS011;328;50.086;8.576;2022-09-04T01:43:29;1.50;;;0.90;;
691;SDS011;328;50.086;8.576;2022-09-04T01:46:02;3.33;;;1.17;;
691;SDS011;328;50.086;8.576;2022-09-04T01:48:39;1.53;;;1.00;;
691;SDS011;328;50.086;8.576;2022-09-04T01:51:12;1.53;;;0.80;;
691;SDS011;328;50.086;8.576;2022-09-04T01:53:45;1.10;;;0.70;;
691;SDS011;328;50.086;8.576;2022-09-04T01:56:22;1.20;;;1.07;;
691;SDS011;328;50.086;8.576;2022-09-04T01:58:54;2.90;;;1.17;;
691;SDS011;328;50.086;8.576;2022-09-04T02:01:24;1.50;;;0.90;;
691;SDS011;328;50.086;8.576;2022-09-04T02:03:59;1.33;;;1.10;;
691;SDS011;328;50.086;8.576;2022-09-04T02:06:35;3.60;;;1.20;;
691;SDS011;328;50.086;8.576;2022-09-04T02:09:12;2.10;;;1.13;;
691;SDS011;328;50.086;8.576;2022-09-04T02:11:49;1.40;;;1.10;;
691;SDS011;328;50.086;8.576;2022-09-04T02:14:30;1.37;;;0.87;;
691;SDS011;328;50.086;8.576;2022-09-04T02:17:05;1.43;;;1.00;;
691;SDS011;328;50.086;8.576;2022-09-04T02:19:36;1.53;;;0.77;;
691;SDS011;328;50.086;8.576;2022-09-04T02:22:14;2.30;;;0.80;;
691;SDS011;328;50.086;8.576;2022-09-04T02:24:50;1.47;;;1.30;;
691;SDS011;328;50.086;8.576;2022-09-04T02:27:23;1.53;;;1.00;;
691;SDS011;328;50.086;8.576;2022-09-04T02:29:57;1.37;;;0.90;;
691;SDS011;328;50.086;8.576;2022-09-04T02:32:30;1.20;;;0.90;;
691;SDS011;328;50.086;8.576;2022-09-04T02:35:05;1.00;;;0.87;;
691;SDS011;328;50.086;8.576;2022-09-04T02:37:37;1.90;;;1.20;;
691;SDS011;328;50.086;8.576;2022-09-04T02:40:15;1.87;;;1.37;;
691;SDS011;328;50.086;8.576;2022-09-04T02:42:50;1.67;;;1.10;;
691;SDS011;328;50.086;8.576;2022-09-04T02:45:24;1.10;;;0.70;;
691;SDS011;328;50.086;8.576;2022-09-04T02:47:56;2.77;;;1.43;;
691;SDS011;328;50.086;8.576;2022-09-04T02:50:33;2.30;;;1.43;;
691;SDS011;328;50.086;8.576;2022-09-04T02:53:08;1.83;;;0.87;;
691;SDS011;328;50.086;8.576;2022-09-04T02:55:48;1.30;;;1.00;;
691;SDS011;328;50.086;8.576;2022-09-04T02:58:26;1.20;;;0.80;;
691;SDS011;328;50.086;8.576;2022-09-04T03:01:01;1.87;;;0.80;;
691;SDS011;328;50.086;8.576;2022-09-04T03:03:33;2.33;;;1.13;;
691;SDS011;328;50.086;8.576;2022-09-04T03:06:07;1.73;;;1.03;;
691;SDS011;328;50.086;8.576;2022-09-04T03:08:37;2.73;;;1.07;;
691;SDS011;328;50.086;8.576;2022-09-04T03:11:12;3.33;;;1.50;;
691;SDS011;328;50.086;8.576;2022-09-04T03:13:47;1.50;;;0.80;;
691;SDS011;328;50.086;8.576;2022-09-04T03:16:18;1.30;;;1.20;;
691;SDS011;328;50.086;8.576;2022-09-04T03:18:54;1.63;;;1.07;;
691;SDS011;328;50.086;8.576;2022-09-04T03:21:28;2.47;;;1.40;;
691;SDS011;328;50.086;8.576;2022-09-04T03:24:02;1.80;;;1.40;;
691;SDS011;328;50.086;8.576;2022-09-04T03:26:33;1.53;;;1.20;;
691;SDS011;328;50.086;8.576;2022-09-04T03:29:04;2.40;;;1.53;;
691;SDS011;328;50.086;8.576;2022-09-04T03:31:39;4.90;;;3.13;;
691;SDS011;328;50.086;8.576;2022-09-04T03:34:19;2.20;;;1.07;;
691;SDS011;328;50.086;8.576;2022-09-04T03:37:06;2.40;;;1.20;;
691;SDS011;328;50.086;8.576;2022-09-04T03:39:40;4.93;;;1.50;;
691;SDS011;328;50.086;8.576;2022-09-04T03:42:18;2.23;;;1.63;;
691;SDS011;328;50.086;8.576;2022-09-04T03:44:56;5.77;;;1.67;;
691;SDS011;328;50.086;8.576;2022-09-04T03:47:30;8.00;;;2.40;;
691;SDS011;328;50.086;8.576;2022-09-04T03:50:05;7.27;;;2.43;;
691;SDS011;328;50.086;8.576;2022-09-04T03:52:41;7.03;;;2.87;;
691;SDS011;328;50.086;8.576;2022-09-04T03:55:15;3.63;;;2.10;;
691;SDS011;328;50.086;8.576;2022-09-04T03:58:01;8.47;;;3.40;;
691;SDS011;328;50.086;8.576;2022-09-04T04:00:38;6.63;;;3.20;;
691;SDS011;328;50.086;8.576;2022-09-04T04:03:15;16.50;;;5.60;;
691;SDS011;328;50.086;8.576;2022-09-04T04:05:52;13.73;;;6.27;;
691;SDS011;328;50.086;8.576;2022-09-04T04:08:32;19.20;;;7.23;;
691;SDS011;328;50.086;8.576;2022-09-04T04:11:12;19.17;;;8.07;;
691;SDS011;328;50.086;8.576;2022-09-04T04:13:52;20.63;;;7.97;;
691;SDS011;328;50.086;8.576;2022-09-04T04:16:34;26.90;;;10.33;;
691;SDS011;328;50.086;8.576;2022-09-04T04:22:17;25.17;;;8.90;;
691;SDS011;328;50.086;8.576;2022-09-04T04:24:54;23.90;;;8.30;;
691;SDS011;328;50.086;8.576;2022-09-04T04:27:40;31.57;;;9.27;;
691;SDS011;328;50.086;8.576;2022-09-04T04:30:14;23.73;;;8.10;;
691;SDS011;328;50.086;8.576;2022-09-04T04:32:53;22.23;;;7.10;;
691;SDS011;328;50.086;8.576;2022-09-04T04:35:28;17.27;;;7.10;;
691;SDS011;328;50.086;8.576;2022-09-04T04:38:00;21.43;;;6.77;;
691;SDS011;328;50.086;8.576;2022-09-04T04:40:47;18.13;;;7.27;;
691;SDS011;328;50.086;8.576;2022-09-04T04:43:25;18.00;;;6.87;;
691;SDS011;328;50.086;8.576;2022-09-04T04:45:59;15.50;;;6.30;;
691;SDS011;328;50.086;8.576;2022-09-04T04:48:48;18.83;;;5.40;;
691;SDS011;328;50.086;8.576;2022-09-04T04:54:28;15.43;;;5.80;;
691;SDS011;328;50.086;8.576;2022-09-04T04:57:09;13.50;;;6.50;;
691;SDS011;328;50.086;8.576;2022-09-04T04:59:41;15.50;;;6.30;;
691;SDS011;328;50.086;8.576;2022-09-04T05:02:13;17.70;;;5.87;;
691;SDS011;328;50.086;8.576;2022-09-04T05:04:48;16.17;;;6.47;;
691;SDS011;328;50.086;8.576;2022-09-04T05:07:20;16.40;;;5.47;;
691;SDS011;328;50.086;8.576;2022-09-04T05:09:56;16.70;;;6.10;;
691;SDS011;328;50.086;8.576;2022-09-04T05:12:30;12.77;;;5.80;;
691;SDS011;328;50.086;8.576;2022-09-04T05:15:09;19.17;;;7.50;;
691;SDS011;328;50.086;8.576;2022-09-04T05:17:43;21.73;;;7.43;;
691;SDS011;328;50.086;8.576;2022-09-04T05:20:19;16.40;;;5.43;;
691;SDS011;328;50.086;8.576;2022-09-04T05:22:54;20.63;;;7.10;;
691;SDS011;328;50.086;8.576;2022-09-04T05:25:28;19.40;;;6.10;;
691;SDS011;328;50.086;8.576;2022-09-04T05:28:04;23.97;;;8.70;;
691;SDS011;328;50.086;8.576;2022-09-04T05:30:39;27.20;;;9.50;;
691;SDS011;328;50.086;8.576;2022-09-04T05:33:12;28.13;;;10.47;;
691;SDS011;328;50.086;8.576;2022-09-04T05:35:46;32.10;;;10.47;;
691;SDS011;328;50.086;8.576;2022-09-04T05:38:19;42.67;;;13.20;;
691;SDS011;328;50.086;8.576;2022-09-04T05:41:05;37.30;;;12.53;;
691;SDS011;328;50.086;8.576;2022-09-04T05:43:38;39.77;;;13.30;;
691;SDS011;328;50.086;8.576;2022-09-04T05:46:16;35.40;;;12.03;;
691;SDS011;328;50.086;8.576;2022-09-04T05:48:56;34.43;;;11.90;;
691;SDS011;328;50.086;8.576;2022-09-04T05:51:40;37.57;;;12.40;;
691;SDS011;328;50.086;8.576;2022-09-04T05:54:21;32.90;;;11.00;;
691;SDS011;328;50.086;8.576;2022-09-04T05:57:15;38.63;;;12.43;;
691;SDS011;328;50.086;8.576;2022-09-04T05:59:56;39.30;;;12.13;;
691;SDS011;328;50.086;8.576;2022-09-04T06:02:38;35.00;;;12.30;;
691;SDS011;328;50.086;8.576;2022-09-04T06:05:17;42.00;;;14.37;;
691;SDS011;328;50.086;8.576;2022-09-04T06:07:52;39.70;;;13.73;;
691;SDS011;328;50.086;8.576;2022-09-04T06:10:26;34.60;;;11.73;;
691;SDS011;328;50.086;8.576;2022-09-04T06:13:18;28.93;;;9.60;;
691;SDS011;328;50.086;8.576;2022-09-04T06:15:52;31.60;;;11.10;;
691;SDS011;328;50.086;8.576;2022-09-04T06:18:42;29.50;;;11.37;;
691;SDS011;328;50.086;8.576;2022-09-04T06:21:28;31.87;;;11.60;;
691;SDS011;328;50.086;8.576;2022-09-04T06:24:13;26.27;;;11.23;;
691;SDS011;328;50.086;8.576;2022-09-04T06:29:50;31.30;;;12.93;;
691;SDS011;328;50.086;8.576;2022-09-04T06:32:28;33.80;;;11.93;;
691;SDS011;328;50.086;8.576;2022-09-04T06:35:08;28.27;;;11.77;;
691;SDS011;328;50.086;8.576;2022-09-04T06:37:53;23.13;;;10.20;;
691;SDS011;328;50.086;8.576;2022-09-04T06:40:33;20.87;;;9.10;;
691;SDS011;328;50.086;8.576;2022-09-04T06:43:11;37.77;;;14.90;;
691;SDS011;328;50.086;8.576;2022-09-04T06:45:46;32.37;;;13.60;;
691;SDS011;328;50.086;8.576;2022-09-04T06:48:21;32.53;;;15.67;;
691;SDS011;328;50.086;8.576;2022-09-04T06:50:53;30.23;;;13.33;;
691;SDS011;328;50.086;8.576;2022-09-04T06:53:29;33.10;;;13.37;;
691;SDS011;328;50.086;8.576;2022-09-04T06:56:11;31.73;;;14.17;;
691;SDS011;328;50.086;8.576;2022-09-04T06:58:47;29.87;;;13.93;;
691;SDS011;328;50.086;8.576;2022-09-04T07:01:36;26.47;;;12.60;;
691;SDS011;328;50.086;8.576;2022-09-04T07:04:14;25.57;;;12.37;;
691;SDS011;328;50.086;8.576;2022-09-04T07:06:55;29.20;;;12.93;;
691;SDS011;328;50.086;8.576;2022-09-04T07:09:27;25.40;;;13.37;;
691;SDS011;328;50.086;8.576;2022-09-04T07:12:07;23.63;;;11.00;;
691;SDS011;328;50.086;8.576;2022-09-04T07:14:50;26.00;;;12.60;;
691;SDS011;328;50.086;8.576;2022-09-04T07:17:41;28.97;;;12.93;;
691;SDS011;328;50.086;8.576;2022-09-04T07:20:19;18.70;;;9.83;;
691;SDS011;328;50.086;8.576;2022-09-04T07:23:02;21.43;;;10.40;;
691;SDS011;328;50.086;8.576;2022-09-04T07:25:38;17.17;;;9.27;;
691;SDS011;328;50.086;8.576;2022-09-04T07:28:13;17.10;;;9.13;;
691;SDS011;328;50.086;8.576;2022-09-04T07:31:03;19.00;;;9.50;;
691;SDS011;328;50.086;8.576;2022-09-04T07:33:36;21.60;;;10.40;;
691;SDS011;328;50.086;8.576;2022-09-04T07:36:12;14.87;;;9.43;;
691;SDS011;328;50.086;8.576;2022-09-04T07:38:44;11.50;;;7.47;;
691;SDS011;328;50.086;8.576;2022-09-04T07:41:20;16.30;;;8.27;;
691;SDS011;328;50.086;8.576;2022-09-04T07:43:54;13.47;;;7.60;;
691;SDS011;328;50.086;8.576;2022-09-04T07:46:30;13.17;;;8.70;;
691;SDS011;328;50.086;8.576;2022-09-04T07:49:03;12.03;;;8.10;;
691;SDS011;328;50.086;8.576;2022-09-04T07:51:35;11.80;;;7.70;;
691;SDS011;328;50.086;8.576;2022-09-04T08:00:06;8.67;;;7.17;;
691;SDS011;328;50.086;8.576;2022-09-04T08:02:44;10.37;;;6.97;;
691;SDS011;328;50.086;8.576;2022-09-04T08:05:25;11.53;;;8.20;;
691;SDS011;328;50.086;8.576;2022-09-04T08:08:03;10.70;;;6.80;;
691;SDS011;328;50.086;8.576;2022-09-04T08:10:49;9.63;;;7.30;;
691;SDS011;328;50.086;8.576;2022-09-04T08:13:29;11.30;;;7.07;;
691;SDS011;328;50.086;8.576;2022-09-04T08:16:07;13.07;;;7.63;;
691;SDS011;328;50.086;8.576;2022-09-04T08:18:53;12.60;;;8.27;;
691;SDS011;328;50.086;8.576;2022-09-04T08:21:28;15.93;;;10.20;;
691;SDS011;328;50.086;8.576;2022-09-04T08:24:04;11.97;;;8.80;;
691;SDS011;328;50.086;8.576;2022-09-04T08:26:47;11.27;;;8.70;;
691;SDS011;328;50.086;8.576;2022-09-04T08:29:26;11.83;;;8.33;;
691;SDS011;328;50.086;8.576;2022-09-04T08:32:03;12.07;;;8.27;;
691;SDS011;328;50.086;8.576;2022-09-04T08:34:44;11.97;;;8.67;;
691;SDS011;328;50.086;8.576;2022-09-04T08:37:42;11.20;;;7.87;;
691;SDS011;328;50.086;8.576;2022-09-04T08:40:26;15.87;;;8.80;;
691;SDS011;328;50.086;8.576;2022-09-04T08:43:12;11.93;;;9.40;;
691;SDS011;328;50.086;8.576;2022-09-04T08:46:14;13.13;;;8.50;;
691;SDS011;328;50.086;8.576;2022-09-04T08:49:02;13.03;;;8.80;;
691;SDS011;328;50.086;8.576;2022-09-04T08:52:01;12.93;;;10.00;;
691;SDS011;328;50.086;8.576;2022-09-04T08:57:58;15.83;;;11.30;;
691;SDS011;328;50.086;8.576;2022-09-04T09:00:40;14.87;;;9.57;;
691;SDS011;328;50.086;8.576;2022-09-04T09:03:28;12.20;;;9.30;;
691;SDS011;328;50.086;8.576;2022-09-04T09:06:29;12.67;;;9.03;;
691;SDS011;328;50.086;8.576;2022-09-04T09:09:18;14.73;;;10.03;;
691;SDS011;328;50.086;8.576;2022-09-04T09:12:01;15.97;;;11.10;;
691;SDS011;328;50.086;8.576;2022-09-04T09:14:44;16.50;;;10.70;;
691;SDS011;328;50.086;8.576;2022-09-04T09:17:25;14.17;;;10.50;;
691;SDS011;328;50.086;8.576;2022-09-04T09:20:17;14.23;;;8.97;;
691;SDS011;328;50.086;8.576;2022-09-04T09:25:48;10.97;;;8.93;;
691;SDS011;328;50.086;8.576;2022-09-04T09:31:31;11.93;;;10.30;;
691;SDS011;328;50.086;8.576;2022-09-04T09:37:12;13.90;;;10.53;;
691;SDS011;328;50.086;8.576;2022-09-04T09:40:01;12.10;;;9.60;;
691;SDS011;328;50.086;8.576;2022-09-04T09:42:42;10.90;;;9.80;;
691;SDS011;328;50.086;8.576;2022-09-04T09:48:35;11.33;;;9.90;;
691;SDS011;328;50.086;8.576;2022-09-04T09:51:23;11.13;;;9.90;;
691;SDS011;328;50.086;8.576;2022-09-04T09:54:21;15.30;;;12.77;;
691;SDS011;328;50.086;8.576;2022-09-04T09:56:59;11.43;;;8.30;;
691;SDS011;328;50.086;8.576;2022-09-04T09:59:49;8.10;;;7.30;;
691;SDS011;328;50.086;8.576;2022-09-04T10:05:53;7.60;;;6.50;;
691;SDS011;328;50.086;8.576;2022-09-04T10:08:55;6.70;;;5.87;;
691;SDS011;328;50.086;8.576;2022-09-04T10:11:53;7.93;;;6.60;;
691;SDS011;328;50.086;8.576;2022-09-04T10:14:36;8.30;;;6.80;;
691;SDS011;328;50.086;8.576;2022-09-04T10:17:24;7.40;;;6.07;;
691;SDS011;328;50.086;8.576;2022-09-04T10:20:40;5.80;;;5.30;;
691;SDS011;328;50.086;8.576;2022-09-04T10:23:20;8.10;;;6.63;;
691;SDS011;328;50.086;8.576;2022-09-04T10:25:57;7.73;;;6.37;;
691;SDS011;328;50.086;8.576;2022-09-04T10:28:40;7.83;;;6.00;;
691;SDS011;328;50.086;8.576;2022-09-04T10:31:29;7.33;;;6.50;;
691;SDS011;328;50.086;8.576;2022-09-04T10:34:12;6.17;;;5.47;;
691;SDS011;328;50.086;8.576;2022-09-04T10:36:49;6.00;;;5.40;;
691;SDS011;328;50.086;8.576;2022-09-04T10:39:28;12.97;;;11.50;;
691;SDS011;328;50.086;8.576;2022-09-04T10:42:28;18.53;;;15.67;;
691;SDS011;328;50.086;8.576;2022-09-04T10:45:17;8.60;;;5.87;;
691;SDS011;328;50.086;8.576;2022-09-04T10:47:58;6.87;;;5.77;;
691;SDS011;328;50.086;8.576;2022-09-04T10:51:04;7.13;;;5.80;;
691;SDS011;328;50.086;8.576;2022-09-04T10:53:48;5.33;;;4.60;;
691;SDS011;328;50.086;8.576;2022-09-04T10:56:34;6.40;;;5.67;;
691;SDS011;328;50.086;8.576;2022-09-04T10:59:17;6.70;;;5.90;;
691;SDS011;328;50.086;8.576;2022-09-04T11:05:21;5.67;;;4.40;;
691;SDS011;328;50.086;8.576;2022-09-04T11:08:18;8.17;;;5.23;;
691;SDS011;328;50.086;8.576;2022-09-04T11:11:18;6.50;;;5.90;;
691;SDS011;328;50.086;8.576;2022-09-04T11:19:54;6.80;;;5.00;;
691;SDS011;328;50.086;8.576;2022-09-04T11:22:50;4.60;;;4.20;;
691;SDS011;328;50.086;8.576;2022-09-04T11:28:36;5.30;;;4.80;;
691;SDS011;328;50.086;8.576;2022-09-04T11:31:13;5.80;;;4.43;;
691;SDS011;328;50.086;8.576;2022-09-04T11:40:18;8.23;;;5.63;;
691;SDS011;328;50.086;8.576;2022-09-04T11:43:02;6.30;;;5.67;;
691;SDS011;328;50.086;8.576;2022-09-04T11:46:02;8.70;;;6.57;;
691;SDS011;328;50.086;8.576;2022-09-04T11:49:03;5.23;;;4.73;;
691;SDS011;328;50.086;8.576;2022-09-04T11:52:00;4.53;;;4.07;;
691;SDS011;328;50.086;8.576;2022-09-04T11:54:36;5.97;;;4.80;;
691;SDS011;328;50.086;8.576;2022-09-04T11:57:29;6.20;;;4.17;;
691;SDS011;328;50.086;8.576;2022-09-04T12:00:08;4.17;;;3.87;;
691;SDS011;328;50.086;8.576;2022-09-04T12:02:44;4.20;;;3.80;;
691;SDS011;328;50.086;8.576;2022-09-04T12:05:35;4.63;;;3.67;;
691;SDS011;328;50.086;8.576;2022-09-04T12:09:06;4.30;;;3.13;;
691;SDS011;328;50.086;8.576;2022-09-04T12:12:00;3.50;;;2.47;;
691;SDS011;328;50.086;8.576;2022-09-04T12:14:47;3.60;;;3.00;;
691;SDS011;328;50.086;8.576;2022-09-04T12:17:50;4.13;;;2.80;;
691;SDS011;328;50.086;8.576;2022-09-04T12:27:02;3.90;;;2.83;;
691;SDS011;328;50.086;8.576;2022-09-04T12:32:49;3.43;;;3.13;;
691;SDS011;328;50.086;8.576;2022-09-04T12:36:04;2.70;;;2.20;;
691;SDS011;328;50.086;8.576;2022-09-04T12:38:49;2.80;;;1.70;;
691;SDS011;328;50.086;8.576;2022-09-04T12:41:33;3.30;;;2.37;;
691;SDS011;328;50.086;8.576;2022-09-04T12:44:06;3.33;;;3.03;;
691;SDS011;328;50.086;8.576;2022-09-04T12:46:54;3.60;;;2.43;;
691;SDS011;328;50.086;8.576;2022-09-04T12:49:49;4.53;;;2.30;;
691;SDS011;328;50.086;8.576;2022-09-04T12:52:52;1.90;;;1.77;;
691;SDS011;328;50.086;8.576;2022-09-04T12:55:50;2.73;;;2.50;;
691;SDS011;328;50.086;8.576;2022-09-04T12:58:54;2.60;;;2.40;;
691;SDS011;328;50.086;8.576;2022-09-04T13:01:43;3.20;;;1.97;;
691;SDS011;328;50.086;8.576;2022-09-04T13:04:31;2.57;;;2.10;;
691;SDS011;328;50.086;8.576;2022-09-04T13:07:13;2.30;;;1.67;;
691;SDS011;328;50.086;8.576;2022-09-04T13:09:53;1.50;;;1.23;;
691;SDS011;328;50.086;8.576;2022-09-04T13:12:33;1.50;;;1.40;;
691;SDS011;328;50.086;8.576;2022-09-04T13:15:17;3.00;;;1.80;;
691;SDS011;328;50.086;8.576;2022-09-04T13:18:00;2.33;;;1.50;;
691;SDS011;328;50.086;8.576;2022-09-04T13:20:45;1.97;;;1.33;;
691;SDS011;328;50.086;8.576;2022-09-04T13:23:27;1.60;;;1.40;;
691;SDS011;328;50.086;8.576;2022-09-04T13:26:21;1.50;;;1.40;;
691;SDS011;328;50.086;8.576;2022-09-04T13:28:59;2.00;;;1.47;;
691;SDS011;328;50.086;8.576;2022-09-04T13:34:36;1.27;;;1.17;;
691;SDS011;328;50.086;8.576;2022-09-04T13:37:19;1.97;;;1.37;;
691;SDS011;328;50.086;8.576;2022-09-04T13:39:55;1.70;;;1.50;;
691;SDS011;328;50.086;8.576;2022-09-04T13:42:55;1.87;;;1.57;;
691;SDS011;328;50.086;8.576;2022-09-04T13:45:38;1.43;;;1.07;;
691;SDS011;328;50.086;8.576;2022-09-04T13:48:09;1.10;;;1.00;;
691;SDS011;328;50.086;8.576;2022-09-04T13:50:46;1.50;;;1.00;;
691;SDS011;328;50.086;8.576;2022-09-04T13:53:20;1.27;;;1.03;;
691;SDS011;328;50.086;8.576;2022-09-04T13:55:54;1.10;;;1.00;;
691;SDS011;328;50.086;8.576;2022-09-04T13:58:26;1.50;;;1.23;;
691;SDS011;328;50.086;8.576;2022-09-04T14:00:57;1.50;;;1.10;;
691;SDS011;328;50.086;8.576;2022-09-04T14:03:29;1.63;;;1.43;;
691;SDS011;328;50.086;8.576;2022-09-04T14:06:01;1.40;;;1.30;;
691;SDS011;328;50.086;8.576;2022-09-04T14:08:36;1.10;;;0.97;;
691;SDS011;328;50.086;8.576;2022-09-04T14:11:19;1.00;;;0.80;;
691;SDS011;328;50.086;8.576;2022-09-04T14:14:09;1.50;;;1.20;;
691;SDS011;328;50.086;8.576;2022-09-04T14:16:46;1.67;;;1.30;;
691;SDS011;328;50.086;8.576;2022-09-04T14:19:23;1.30;;;1.00;;
691;SDS011;328;50.086;8.576;2022-09-04T14:22:04;1.20;;;1.10;;
691;SDS011;328;50.086;8.576;2022-09-04T14:24:39;1.30;;;1.20;;
691;SDS011;328;50.086;8.576;2022-09-04T14:27:13;1.83;;;0.97;;
691;SDS011;328;50.086;8.576;2022-09-04T14:29:50;1.60;;;1.10;;
691;SDS011;328;50.086;8.576;2022-09-04T14:32:27;1.40;;;1.10;;
691;SDS011;328;50.086;8.576;2022-09-04T14:35:07;1.10;;;0.90;;
691;SDS011;328;50.086;8.576;2022-09-04T14:37:45;1.20;;;1.00;;
691;SDS011;328;50.086;8.576;2022-09-04T14:40:28;1.13;;;1.00;;
691;SDS011;328;50.086;8.576;2022-09-04T14:42:59;1.90;;;1.30;;
691;SDS011;328;50.086;8.576;2022-09-04T14:48:35;1.00;;;0.80;;
691;SDS011;328;50.086;8.576;2022-09-04T14:51:10;1.70;;;1.20;;
691;SDS011;328;50.086;8.576;2022-09-04T14:53:45;1.30;;;1.07;;
691;SDS011;328;50.086;8.576;2022-09-04T14:56:18;1.67;;;1.00;;
691;SDS011;328;50.086;8.576;2022-09-04T14:58:51;1.27;;;1.10;;
691;SDS011;328;50.086;8.576;2022-09-04T15:01:22;1.30;;;1.10;;
691;SDS011;328;50.086;8.576;2022-09-04T15:03:52;2.37;;;1.13;;
691;SDS011;328;50.086;8.576;2022-09-04T15:06:23;1.23;;;0.93;;
691;SDS011;328;50.086;8.576;2022-09-04T15:09:20;1.67;;;1.00;;
691;SDS011;328;50.086;8.576;2022-09-04T15:11:52;1.70;;;1.13;;
691;SDS011;328;50.086;8.576;2022-09-04T15:14:42;2.03;;;1.27;;
691;SDS011;328;50.086;8.576;2022-09-04T15:17:12;1.40;;;1.07;;
691;SDS011;328;50.086;8.576;2022-09-04T15:19:51;1.20;;;1.10;;
691;SDS011;328;50.086;8.576;2022-09-04T15:22:22;1.20;;;1.00;;
691;SDS011;328;50.086;8.576;2022-09-04T15:24:53;1.23;;;1.03;;
691;SDS011;328;50.086;8.576;2022-09-04T15:27:25;1.90;;;1.30;;
691;SDS011;328;50.086;8.576;2022-09-04T15:30:00;1.20;;;0.93;;
691;SDS011;328;50.086;8.576;2022-09-04T15:32:32;1.40;;;1.17;;
691;SDS011;328;50.086;8.576;2022-09-04T15:35:05;1.37;;;0.90;;
691;SDS011;328;50.086;8.576;2022-09-04T15:37:41;2.77;;;1.40;;
691;SDS011;328;50.086;8.576;2022-09-04T15:40:10;1.57;;;1.30;;
691;SDS011;328;50.086;8.576;2022-09-04T15:42:44;1.37;;;1.27;;
691;SDS011;328;50.086;8.576;2022-09-04T15:45:17;1.20;;;0.90;;
691;SDS011;328;50.086;8.576;2022-09-04T15:47:56;1.30;;;1.20;;
691;SDS011;328;50.086;8.576;2022-09-04T15:50:31;1.30;;;1.00;;
691;SDS011;328;50.086;8.576;2022-09-04T15:53:08;1.10;;;0.93;;
691;SDS011;328;50.086;8.576;2022-09-04T15:55:40;1.10;;;1.00;;
691;SDS011;328;50.086;8.576;2022-09-04T15:58:12;1.83;;;1.20;;
691;SDS011;328;50.086;8.576;2022-09-04T16:00:52;1.67;;;1.20;;
691;SDS011;328;50.086;8.576;2022-09-04T16:03:34;1.67;;;1.57;;
691;SDS011;328;50.086;8.576;2022-09-04T16:06:13;1.10;;;0.90;;
691;SDS011;328;50.086;8.576;2022-09-04T16:08:45;1.10;;;1.00;;
691;SDS011;328;50.086;8.576;2022-09-04T16:11:20;1.30;;;0.90;;
691;SDS011;328;50.086;8.576;2022-09-04T16:13:53;2.30;;;1.30;;
691;SDS011;328;50.086;8.576;2022-09-04T16:16:24;1.10;;;0.87;;
691;SDS011;328;50.086;8.576;2022-09-04T16:19:11;1.97;;;0.97;;
691;SDS011;328;50.086;8.576;2022-09-04T16:21:47;1.50;;;1.13;;
691;SDS011;328;50.086;8.576;2022-09-04T16:24:18;0.93;;;0.70;;
691;SDS011;328;50.086;8.576;2022-09-04T16:26:48;1.30;;;0.83;;
691;SDS011;328;50.086;8.576;2022-09-04T16:29:22;1.00;;;0.83;;
691;SDS011;328;50.086;8.576;2022-09-04T16:31:53;1.80;;;1.10;;
691;SDS011;328;50.086;8.576;2022-09-04T16:34:23;1.20;;;0.70;;
691;SDS011;328;50.086;8.576;2022-09-04T16:36:53;2.50;;;1.40;;
691;SDS011;328;50.086;8.576;2022-09-04T16:39:28;1.23;;;1.00;;
691;SDS011;328;50.086;8.576;2022-09-04T16:42:06;1.30;;;1.10;;
691;SDS011;328;50.086;8.576;2022-09-04T16:44:40;1.20;;;1.10;;
691;SDS011;328;50.086;8.576;2022-09-04T16:47:13;1.40;;;1.03;;
691;SDS011;328;50.086;8.576;2022-09-04T16:49:45;4.00;;;0.97;;
691;SDS011;328;50.086;8.576;2022-09-04T16:55:40;1.53;;;1.07;;
691;SDS011;328;50.086;8.576;2022-09-04T16:58:15;1.33;;;1.00;;
691;SDS011;328;50.086;8.576;2022-09-04T17:00:58;1.60;;;1.10;;
691;SDS011;328;50.086;8.576;2022-09-04T17:06:47;1.17;;;0.90;;
691;SDS011;328;50.086;8.576;2022-09-04T17:09:24;1.20;;;1.10;;
691;SDS011;328;50.086;8.576;2022-09-04T17:11:56;1.13;;;0.93;;
691;SDS011;328;50.086;8.576;2022-09-04T17:14:29;1.47;;;1.13;;
691;SDS011;328;50.086;8.576;2022-09-04T17:17:04;1.23;;;0.90;;
691;SDS011;328;50.086;8.576;2022-09-04T17:19:59;1.33;;;0.93;;
691;SDS011;328;50.086;8.576;2022-09-04T17:22:34;1.47;;;1.30;;
691;SDS011;328;50.086;8.576;2022-09-04T17:25:28;3.97;;;1.30;;
691;SDS011;328;50.086;8.576;2022-09-04T17:28:20;1.50;;;0.83;;
691;SDS011;328;50.086;8.576;2022-09-04T17:31:13;2.30;;;1.00;;
691;SDS011;328;50.086;8.576;2022-09-04T17:33:46;1.60;;;1.30;;
691;SDS011;328;50.086;8.576;2022-09-04T17:36:40;1.93;;;1.40;;
691;SDS011;328;50.086;8.576;2022-09-04T17:39:31;2.83;;;1.80;;
691;SDS011;328;50.086;8.576;2022-09-04T17:42:21;3.30;;;1.70;;
691;SDS011;328;50.086;8.576;2022-09-04T17:44:53;2.90;;;1.87;;
691;SDS011;328;50.086;8.576;2022-09-04T17:47:25;2.33;;;1.70;;
691;SDS011;328;50.086;8.576;2022-09-04T17:49:56;1.83;;;1.30;;
691;SDS011;328;50.086;8.576;2022-09-04T17:52:25;2.97;;;1.60;;
691;SDS011;328;50.086;8.576;2022-09-04T17:54:57;2.80;;;1.93;;
691;SDS011;328;50.086;8.576;2022-09-04T17:57:43;2.60;;;1.70;;
691;SDS011;328;50.086;8.576;2022-09-04T18:00:16;2.03;;;1.47;;
691;SDS011;328;50.086;8.576;2022-09-04T18:02:48;2.03;;;1.20;;
691;SDS011;328;50.086;8.576;2022-09-04T18:05:21;2.23;;;1.40;;
691;SDS011;328;50.086;8.576;2022-09-04T18:07:53;2.17;;;1.53;;
691;SDS011;328;50.086;8.576;2022-09-04T18:10:37;2.67;;;2.03;;
691;SDS011;328;50.086;8.576;2022-09-04T18:13:13;2.70;;;2.10;;
691;SDS011;328;50.086;8.576;2022-09-04T18:16:12;5.80;;;2.00;;
691;SDS011;328;50.086;8.576;2022-09-04T18:18:45;2.30;;;2.10;;
691;SDS011;328;50.086;8.576;2022-09-04T18:21:18;1.40;;;1.30;;